createdAt,value
2017-07-05T00:02:11.454Z,17.80
2017-07-05T00:04:40.428Z,17.80
2017-07-05T00:07:08.632Z,17.80
2017-07-05T00:09:37.589Z,17.70
2017-07-05T00:12:05.823Z,17.70
2017-07-05T00:14:34.036Z,17.70
2017-07-05T00:17:02.231Z,17.70
2017-07-05T00:19:30.450Z,17.70
2017-07-05T00:21:58.621Z,17.60
2017-07-05T00:24:26.805Z,17.60
2017-07-05T00:26:55.004Z,17.60
2017-07-05T00:29:23.183Z,17.60
2017-07-05T00:31:51.383Z,17.60
2017-07-05T00:34:19.603Z,17.60
2017-07-05T00:36:47.807Z,17.60
2017-07-05T00:39:15.985Z,17.60
2017-07-05T00:41:44.196Z,17.60
2017-07-05T00:44:13.141Z,17.60
2017-07-05T00:46:41.330Z,17.60
2017-07-05T00:49:09.547Z,17.60
2017-07-05T00:51:38.489Z,17.70
2017-07-05T00:54:06.676Z,17.70
2017-07-05T00:56:34.889Z,17.70
2017-07-05T00:59:03.844Z,17.60
2017-07-05T01:01:32.036Z,17.60
2017-07-05T01:04:00.235Z,17.60
2017-07-05T01:06:29.177Z,17.60
2017-07-05T01:08:57.361Z,17.60
2017-07-05T01:11:25.583Z,17.60
2017-07-05T01:13:53.761Z,17.60
2017-07-05T01:16:22.694Z,17.70
2017-07-05T01:18:50.920Z,17.60
2017-07-05T01:21:19.857Z,17.60
2017-07-05T01:23:48.030Z,17.60
2017-07-05T01:26:16.242Z,17.60
2017-07-05T01:28:44.432Z,17.60
2017-07-05T01:31:13.410Z,17.60
2017-07-05T01:33:41.660Z,17.50
2017-07-05T01:36:09.829Z,17.50
2017-07-05T01:38:38.025Z,17.50
2017-07-05T01:41:06.262Z,17.50
2017-07-05T01:43:34.452Z,17.40
2017-07-05T01:46:02.639Z,17.50
2017-07-05T01:48:30.857Z,17.40
2017-07-05T01:50:59.870Z,17.30
2017-07-05T01:53:28.815Z,17.40
2017-07-05T01:55:57.032Z,17.30
2017-07-05T01:58:25.221Z,17.30
2017-07-05T02:00:53.405Z,17.30
2017-07-05T02:03:21.629Z,17.30
2017-07-05T02:05:50.613Z,17.30
2017-07-05T02:08:18.830Z,17.30
2017-07-05T02:10:47.031Z,17.20
2017-07-05T02:13:15.237Z,17.20
2017-07-05T02:15:43.409Z,17.10
2017-07-05T02:18:11.654Z,17.10
2017-07-05T02:20:39.822Z,17.20
2017-07-05T02:23:08.004Z,17.20
2017-07-05T02:25:36.660Z,17.20
2017-07-05T02:28:04.866Z,17.20
2017-07-05T02:30:33.059Z,17.10
2017-07-05T02:33:01.274Z,17.10
2017-07-05T02:35:30.229Z,17.00
2017-07-05T02:37:58.411Z,17.00
2017-07-05T02:40:26.631Z,17.00
2017-07-05T02:42:55.604Z,16.90
2017-07-05T02:45:23.784Z,16.90
2017-07-05T02:47:52.794Z,16.90
2017-07-05T02:50:20.964Z,16.90
2017-07-05T02:52:49.928Z,16.90
2017-07-05T02:55:18.151Z,16.90
2017-07-05T02:57:46.319Z,16.90
2017-07-05T03:00:14.513Z,16.90
2017-07-05T03:02:42.727Z,16.90
2017-07-05T03:05:10.921Z,16.80
2017-07-05T03:07:39.895Z,16.90
2017-07-05T03:10:08.118Z,16.80
2017-07-05T03:12:36.292Z,16.90
2017-07-05T03:15:04.466Z,16.90
2017-07-05T03:17:32.662Z,16.80
2017-07-05T03:20:00.833Z,16.80
2017-07-05T03:22:29.012Z,16.70
2017-07-05T03:24:57.227Z,16.70
2017-07-05T03:27:25.407Z,16.60
2017-07-05T03:29:54.360Z,16.50
2017-07-05T03:32:22.569Z,16.50
2017-07-05T03:34:50.755Z,16.50
2017-07-05T03:37:19.715Z,16.40
2017-07-05T03:39:47.923Z,16.30
2017-07-05T03:42:16.879Z,16.40
2017-07-05T03:44:46.974Z,16.30
2017-07-05T03:47:15.354Z,16.40
2017-07-05T03:49:43.543Z,16.30
2017-07-05T03:52:12.502Z,16.30
2017-07-05T03:54:40.703Z,16.30
2017-07-05T03:57:08.881Z,16.30
2017-07-05T03:59:37.857Z,16.30
2017-07-05T04:02:06.033Z,16.20
2017-07-05T04:04:34.235Z,16.30
2017-07-05T04:07:03.189Z,16.30
2017-07-05T04:09:31.434Z,16.30
2017-07-05T04:11:59.672Z,16.30
2017-07-05T04:14:27.865Z,16.40
2017-07-05T04:16:56.049Z,16.50
2017-07-05T04:19:24.256Z,16.50
2017-07-05T04:21:52.463Z,16.50
2017-07-05T04:24:20.685Z,16.50
2017-07-05T04:26:49.636Z,16.50
2017-07-05T04:29:17.814Z,16.50
2017-07-05T04:31:46.021Z,16.60
2017-07-05T04:34:14.230Z,16.60
2017-07-05T04:36:42.460Z,16.60
2017-07-05T04:39:10.655Z,16.60
2017-07-05T04:41:38.861Z,16.60
2017-07-05T04:44:07.061Z,16.60
2017-07-05T04:46:35.230Z,16.70
2017-07-05T04:49:03.490Z,16.80
2017-07-05T04:51:31.661Z,16.70
2017-07-05T04:53:59.868Z,16.70
2017-07-05T04:56:28.091Z,16.80
2017-07-05T04:58:56.264Z,16.80
2017-07-05T05:01:25.252Z,16.70
2017-07-05T05:03:54.203Z,16.80
2017-07-05T05:06:22.391Z,16.80
2017-07-05T05:08:50.613Z,16.80
2017-07-05T05:11:18.801Z,16.70
2017-07-05T05:13:47.036Z,16.80
2017-07-05T05:16:16.011Z,16.80
2017-07-05T05:18:44.222Z,16.80
2017-07-05T05:21:13.191Z,16.90
2017-07-05T05:23:41.374Z,16.90
2017-07-05T05:26:10.395Z,17.00
2017-07-05T05:28:38.583Z,17.00
2017-07-05T05:31:06.780Z,17.10
2017-07-05T05:33:34.988Z,17.10
2017-07-05T05:36:03.202Z,17.20
2017-07-05T05:38:31.398Z,17.30
2017-07-05T05:40:59.583Z,17.40
2017-07-05T05:43:27.769Z,17.50
2017-07-05T05:45:55.996Z,17.60
2017-07-05T05:48:24.195Z,17.60
2017-07-05T05:50:53.272Z,17.60
2017-07-05T05:53:21.521Z,17.60
2017-07-05T05:55:50.476Z,18.00
2017-07-05T05:58:18.691Z,17.90
2017-07-05T06:00:47.640Z,18.00
2017-07-05T06:03:15.878Z,18.00
2017-07-05T06:05:44.064Z,18.10
2017-07-05T06:08:12.283Z,18.00
2017-07-05T06:10:40.487Z,17.90
2017-07-05T06:13:08.699Z,17.90
2017-07-05T06:15:36.923Z,17.90
2017-07-05T06:18:05.124Z,17.80
2017-07-05T06:20:33.316Z,17.60
2017-07-05T06:23:01.507Z,17.40
2017-07-05T06:25:29.729Z,17.40
2017-07-05T06:27:58.335Z,17.30
2017-07-05T06:30:26.528Z,17.20
2017-07-05T06:32:54.761Z,17.10
2017-07-05T06:35:22.956Z,17.00
2017-07-05T06:37:51.903Z,16.80
2017-07-05T06:40:20.120Z,16.80
2017-07-05T06:42:49.079Z,16.60
2017-07-05T06:45:17.263Z,16.70
2017-07-05T06:47:45.449Z,16.70
2017-07-05T06:50:13.662Z,16.70
2017-07-05T06:52:41.983Z,16.80
2017-07-05T06:55:10.163Z,16.80
2017-07-05T06:57:38.379Z,16.80
2017-07-05T07:00:06.586Z,16.80
2017-07-05T07:02:34.778Z,16.80
2017-07-05T07:05:03.023Z,16.80
2017-07-05T07:07:31.202Z,16.80
2017-07-05T07:09:59.395Z,16.80
2017-07-05T07:12:27.607Z,16.90
2017-07-05T07:14:55.795Z,17.00
2017-07-05T07:17:24.788Z,17.30
2017-07-05T07:19:53.729Z,17.60
2017-07-05T07:22:21.927Z,17.50
2017-07-05T07:24:50.168Z,18.00
2017-07-05T07:27:18.371Z,18.30
2017-07-05T07:29:46.614Z,18.40
2017-07-05T07:32:14.795Z,18.60
2017-07-05T07:34:43.002Z,18.60
2017-07-05T07:37:11.219Z,18.80
2017-07-05T07:39:40.186Z,18.60
2017-07-05T07:42:09.195Z,18.60
2017-07-05T07:44:38.136Z,18.60
2017-07-05T07:47:06.324Z,18.60
2017-07-05T07:49:34.527Z,18.60
2017-07-05T07:52:03.492Z,18.90
2017-07-05T07:54:31.724Z,18.90
2017-07-05T07:56:59.936Z,19.00
2017-07-05T07:59:28.134Z,18.90
2017-07-05T08:01:56.343Z,19.30
2017-07-05T08:04:24.532Z,19.70
2017-07-05T08:06:52.733Z,19.80
2017-07-05T08:09:20.934Z,19.90
2017-07-05T08:11:49.139Z,20.00
2017-07-05T08:14:18.089Z,20.90
2017-07-05T08:16:46.255Z,20.90
2017-07-05T08:19:14.480Z,21.80
2017-07-05T08:21:43.436Z,23.30
2017-07-05T08:24:11.627Z,23.30
2017-07-05T08:26:39.843Z,23.00
2017-07-05T08:29:08.051Z,23.00
2017-07-05T08:31:36.264Z,22.90
2017-07-05T08:34:05.216Z,23.00
2017-07-05T08:36:33.408Z,23.00
2017-07-05T08:39:01.616Z,24.10
2017-07-05T08:41:30.558Z,24.70
2017-07-05T08:43:58.766Z,24.70
2017-07-05T08:46:27.759Z,23.70
2017-07-05T08:48:55.947Z,23.60
2017-07-05T08:51:24.912Z,23.00
2017-07-05T08:53:53.101Z,22.90
2017-07-05T08:56:21.291Z,22.70
2017-07-05T08:58:49.509Z,22.40
2017-07-05T09:01:17.719Z,21.90
2017-07-05T09:03:45.962Z,21.60
2017-07-05T09:06:14.169Z,21.60
2017-07-05T09:08:42.369Z,21.40
2017-07-05T09:11:11.344Z,21.10
2017-07-05T09:13:39.518Z,21.10
2017-07-05T09:16:07.726Z,21.00
2017-07-05T09:18:35.896Z,21.00
2017-07-05T09:21:04.850Z,21.20
2017-07-05T09:23:33.054Z,21.20
2017-07-05T09:26:02.016Z,21.10
2017-07-05T09:28:30.243Z,21.00
2017-07-05T09:30:58.420Z,21.40
2017-07-05T09:33:26.627Z,21.70
2017-07-05T09:35:54.832Z,21.80
2017-07-05T09:38:23.039Z,22.10
2017-07-05T09:40:51.242Z,22.20
2017-07-05T09:43:19.451Z,22.30
2017-07-05T09:45:47.641Z,23.30
2017-07-05T09:48:16.776Z,27.50
2017-07-05T09:50:47.024Z,27.50
2017-07-05T09:53:16.739Z,29.10
2017-07-05T09:55:47.261Z,30.50
2017-07-05T09:58:15.682Z,30.70
2017-07-05T10:00:43.864Z,29.80
2017-07-05T10:03:12.782Z,27.10
2017-07-05T10:05:40.966Z,27.10
2017-07-05T10:08:09.123Z,26.60
2017-07-05T10:10:37.298Z,26.10
2017-07-05T10:13:05.487Z,26.60
2017-07-05T10:15:33.645Z,27.20
2017-07-05T10:18:01.858Z,28.20
2017-07-05T10:20:30.027Z,29.00
2017-07-05T10:22:58.211Z,30.50
2017-07-05T10:25:26.412Z,32.20
2017-07-05T10:27:54.605Z,32.90
2017-07-05T10:30:22.844Z,32.80
2017-07-05T10:32:51.013Z,33.70
2017-07-05T10:35:20.124Z,34.10
2017-07-05T10:37:48.343Z,34.20
2017-07-05T10:40:16.549Z,34.00
2017-07-05T10:42:44.772Z,33.40
2017-07-05T10:45:12.998Z,31.60
2017-07-05T10:47:41.174Z,31.10
2017-07-05T10:50:09.384Z,32.10
2017-07-05T10:52:37.582Z,33.10
2017-07-05T10:55:05.805Z,33.60
2017-07-05T10:57:33.999Z,34.20
2017-07-05T11:00:02.187Z,34.90
2017-07-05T11:02:30.396Z,36.10
2017-07-05T11:04:58.592Z,37.90
2017-07-05T11:07:26.840Z,38.90
2017-07-05T11:09:55.806Z,40.50
2017-07-05T11:12:23.978Z,40.50
2017-07-05T11:14:52.161Z,39.90
2017-07-05T11:17:20.347Z,38.80
2017-07-05T11:19:49.337Z,37.60
2017-07-05T11:22:18.288Z,35.80
2017-07-05T11:24:46.490Z,35.70
2017-07-05T11:27:14.673Z,34.10
2017-07-05T11:29:42.876Z,32.60
2017-07-05T11:32:11.085Z,31.50
2017-07-05T11:34:39.269Z,30.90
2017-07-05T11:37:07.474Z,30.70
2017-07-05T11:39:35.707Z,30.50
2017-07-05T11:42:03.887Z,30.00
2017-07-05T11:44:32.086Z,29.50
2017-07-05T11:47:00.298Z,28.80
2017-07-05T11:49:28.474Z,28.30
2017-07-05T11:51:56.678Z,27.90
2017-07-05T11:54:24.859Z,27.80
2017-07-05T11:56:53.084Z,27.90
2017-07-05T11:59:22.053Z,27.70
2017-07-05T12:01:50.256Z,27.60
2017-07-05T12:04:19.237Z,27.30
2017-07-05T12:06:47.455Z,27.20
2017-07-05T12:09:15.668Z,27.20
2017-07-05T12:11:43.880Z,27.30
2017-07-05T12:14:12.832Z,27.50
2017-07-05T12:16:41.065Z,27.40
2017-07-05T12:19:09.240Z,27.80
2017-07-05T12:21:37.481Z,28.00
2017-07-05T12:24:06.463Z,28.00
2017-07-05T12:26:34.654Z,28.00
2017-07-05T12:29:03.635Z,28.20
2017-07-05T12:31:31.843Z,28.20
2017-07-05T12:34:00.134Z,28.10
2017-07-05T12:36:29.094Z,28.10
2017-07-05T12:38:57.279Z,28.10
2017-07-05T12:41:26.264Z,28.70
2017-07-05T12:43:55.352Z,28.70
2017-07-05T12:46:24.340Z,28.80
2017-07-05T12:48:52.521Z,28.80
2017-07-05T12:51:21.487Z,28.30
2017-07-05T12:53:49.726Z,28.30
2017-07-05T12:56:17.947Z,28.30
2017-07-05T12:58:46.181Z,28.50
2017-07-05T13:01:14.366Z,28.20
2017-07-05T13:03:42.560Z,27.90
2017-07-05T13:06:10.757Z,27.80
2017-07-05T13:08:38.956Z,27.80
2017-07-05T13:11:07.201Z,27.60
2017-07-05T13:13:35.391Z,27.40
2017-07-05T13:16:04.383Z,27.70
2017-07-05T13:18:32.589Z,27.60
2017-07-05T13:21:00.771Z,27.80
2017-07-05T13:23:29.011Z,27.80
2017-07-05T13:25:57.189Z,27.40
2017-07-05T13:28:26.151Z,27.20
2017-07-05T13:30:54.363Z,27.20
2017-07-05T13:33:23.328Z,27.20
2017-07-05T13:35:51.545Z,27.10
2017-07-05T13:38:20.517Z,27.00
2017-07-05T13:40:48.715Z,27.00
2017-07-05T13:43:16.948Z,27.10
2017-07-05T13:45:45.139Z,27.10
2017-07-05T13:48:13.328Z,27.10
2017-07-05T13:50:42.312Z,27.10
2017-07-05T13:53:10.508Z,27.10
2017-07-05T13:55:38.930Z,27.00
2017-07-05T13:58:07.124Z,26.90
2017-07-05T14:00:35.338Z,26.70
2017-07-05T14:03:03.570Z,26.50
2017-07-05T14:05:31.765Z,26.50
2017-07-05T14:07:59.980Z,26.40
2017-07-05T14:10:28.212Z,26.30
2017-07-05T14:12:56.515Z,26.30
2017-07-05T14:15:24.770Z,26.50
2017-07-05T14:17:53.003Z,26.40
2017-07-05T14:20:21.217Z,26.10
2017-07-05T14:22:49.408Z,26.00
2017-07-05T14:25:18.417Z,25.90
2017-07-05T14:27:47.457Z,26.20
2017-07-05T14:30:15.638Z,26.20
2017-07-05T14:32:43.876Z,25.90
2017-07-05T14:35:12.049Z,25.60
2017-07-05T14:37:40.224Z,25.60
2017-07-05T14:40:08.443Z,25.60
2017-07-05T14:42:36.635Z,25.40
2017-07-05T14:45:05.630Z,25.20
2017-07-05T14:47:33.821Z,25.10
2017-07-05T14:50:02.842Z,25.10
2017-07-05T14:52:31.047Z,25.10
2017-07-05T14:54:59.241Z,25.20
2017-07-05T14:57:27.465Z,25.30
2017-07-05T14:59:55.641Z,25.10
2017-07-05T15:02:23.833Z,25.00
2017-07-05T15:04:52.041Z,25.10
2017-07-05T15:07:20.223Z,24.80
2017-07-05T15:09:48.444Z,24.60
2017-07-05T15:12:16.622Z,24.50
2017-07-05T15:14:44.825Z,24.40
2017-07-05T15:17:13.028Z,24.20
2017-07-05T15:19:41.237Z,24.10
2017-07-05T15:22:09.469Z,24.20
2017-07-05T15:24:37.652Z,24.20
2017-07-05T15:27:05.898Z,24.30
2017-07-05T15:29:34.101Z,24.50
2017-07-05T15:32:02.303Z,24.50
2017-07-05T15:34:31.302Z,24.90
2017-07-05T15:37:00.263Z,24.90
2017-07-05T15:39:28.459Z,24.90
2017-07-05T15:41:57.423Z,25.10
2017-07-05T15:44:25.626Z,25.10
2017-07-05T15:46:54.662Z,24.80
2017-07-05T15:49:22.838Z,24.80
2017-07-05T15:51:51.153Z,24.80
2017-07-05T15:54:19.356Z,24.70
2017-07-05T15:56:48.312Z,24.60
2017-07-05T15:59:16.560Z,24.60
2017-07-05T16:01:44.771Z,24.70
2017-07-05T16:04:12.959Z,24.70
2017-07-05T16:06:41.141Z,24.80
2017-07-05T16:09:10.102Z,24.70
2017-07-05T16:11:38.298Z,24.70
2017-07-05T16:14:06.484Z,24.60
2017-07-05T16:16:35.467Z,24.50
2017-07-05T16:19:03.868Z,24.50
2017-07-05T16:21:32.807Z,24.40
2017-07-05T16:24:01.029Z,24.30
2017-07-05T16:26:29.996Z,24.40
2017-07-05T16:28:58.183Z,24.40
2017-07-05T16:31:26.406Z,24.30
2017-07-05T16:33:54.604Z,24.10
2017-07-05T16:36:22.794Z,24.10
2017-07-05T16:38:50.979Z,24.00
2017-07-05T16:41:19.193Z,24.00
2017-07-05T16:43:47.420Z,23.80
2017-07-05T16:46:15.604Z,23.80
2017-07-05T16:48:43.832Z,23.90
2017-07-05T16:51:12.040Z,23.80
2017-07-05T16:53:40.216Z,23.80
2017-07-05T16:56:08.436Z,24.00
2017-07-05T16:58:37.374Z,23.90
2017-07-05T17:01:05.615Z,23.90
2017-07-05T17:03:33.784Z,23.70
2017-07-05T17:06:01.952Z,23.60
2017-07-05T17:08:30.905Z,23.30
2017-07-05T17:10:59.109Z,23.30
2017-07-05T17:13:28.104Z,23.30
2017-07-05T17:15:56.304Z,23.30
2017-07-05T17:18:24.496Z,23.30
2017-07-05T17:20:52.718Z,23.20
2017-07-05T17:23:20.889Z,23.30
2017-07-05T17:25:49.106Z,23.30
2017-07-05T17:28:17.288Z,23.30
2017-07-05T17:30:45.485Z,23.20
2017-07-05T17:33:13.677Z,23.10
2017-07-05T17:35:41.864Z,23.00
2017-07-05T17:38:10.079Z,23.00
2017-07-05T17:40:38.286Z,23.00
2017-07-05T17:43:06.476Z,23.10
2017-07-05T17:45:34.695Z,23.10
2017-07-05T17:48:03.633Z,23.10
2017-07-05T17:50:31.865Z,23.10
2017-07-05T17:53:00.061Z,23.10
2017-07-05T17:55:28.268Z,23.10
2017-07-05T17:57:56.490Z,23.10
2017-07-05T18:00:24.676Z,23.10
2017-07-05T18:02:52.901Z,23.00
2017-07-05T18:05:21.109Z,22.90
2017-07-05T18:07:50.073Z,22.60
2017-07-05T18:10:18.293Z,22.60
2017-07-05T18:12:46.513Z,22.50
2017-07-05T18:15:14.736Z,22.50
2017-07-05T18:17:42.922Z,22.50
2017-07-05T18:20:11.117Z,22.40
2017-07-05T18:22:40.120Z,22.30
2017-07-05T18:25:08.329Z,22.40
2017-07-05T18:27:37.574Z,22.50
2017-07-05T18:30:05.785Z,22.50
2017-07-05T18:32:33.971Z,22.40
2017-07-05T18:35:02.153Z,22.40
2017-07-05T18:37:30.354Z,22.40
2017-07-05T18:39:58.555Z,22.40
2017-07-05T18:42:26.760Z,22.40
2017-07-05T18:44:54.949Z,22.40
2017-07-05T18:47:23.153Z,22.40
2017-07-05T18:49:51.336Z,22.30
2017-07-05T18:52:19.521Z,22.30
2017-07-05T18:54:47.689Z,22.20
2017-07-05T18:57:15.893Z,22.10
2017-07-05T18:59:44.124Z,22.00
2017-07-05T19:02:12.332Z,22.00
2017-07-05T19:04:40.505Z,21.90
2017-07-05T19:07:08.700Z,21.80
2017-07-05T19:09:36.888Z,21.70
2017-07-05T19:12:05.129Z,21.70
2017-07-05T19:14:33.333Z,21.60
2017-07-05T19:17:01.507Z,21.50
2017-07-05T19:19:30.479Z,21.50
2017-07-05T19:21:58.653Z,21.50
2017-07-05T19:24:26.891Z,21.50
2017-07-05T19:26:55.091Z,21.40
2017-07-05T19:29:23.285Z,21.30
2017-07-05T19:31:51.512Z,21.30
2017-07-05T19:34:19.720Z,21.20
2017-07-05T19:36:47.990Z,21.30
2017-07-05T19:39:16.164Z,21.30
2017-07-05T19:41:44.375Z,21.30
2017-07-05T19:44:12.589Z,21.20
2017-07-05T19:46:40.823Z,21.20
2017-07-05T19:49:09.049Z,21.10
2017-07-05T19:51:37.258Z,21.10
2017-07-05T19:54:05.497Z,21.10
2017-07-05T19:56:33.715Z,21.10
2017-07-05T19:59:01.907Z,21.00
2017-07-05T20:01:30.123Z,21.00
2017-07-05T20:03:58.306Z,21.00
2017-07-05T20:06:26.511Z,21.00
2017-07-05T20:08:54.697Z,21.00
2017-07-05T20:11:22.877Z,21.00
2017-07-05T20:13:51.122Z,20.90
2017-07-05T20:16:19.321Z,20.90
2017-07-05T20:18:47.513Z,20.90
2017-07-05T20:21:15.720Z,20.80
2017-07-05T20:23:43.933Z,20.80
2017-07-05T20:26:12.139Z,20.70
2017-07-05T20:28:40.329Z,20.60
2017-07-05T20:31:09.289Z,20.50
2017-07-05T20:33:37.476Z,20.50
2017-07-05T20:36:05.664Z,20.60
2017-07-05T20:38:33.883Z,20.60
2017-07-05T20:41:02.068Z,20.60
2017-07-05T20:43:30.252Z,20.50
2017-07-05T20:45:58.474Z,20.50
2017-07-05T20:48:27.436Z,20.40
2017-07-05T20:50:55.684Z,20.40
2017-07-05T20:53:23.859Z,20.30
2017-07-05T20:55:52.046Z,20.30
2017-07-05T20:58:20.276Z,20.20
2017-07-05T21:00:48.445Z,20.10
2017-07-05T21:03:16.893Z,20.10
2017-07-05T21:05:45.103Z,20.00
2017-07-05T21:08:13.308Z,20.00
2017-07-05T21:10:41.501Z,19.90
2017-07-05T21:13:09.685Z,19.90
2017-07-05T21:15:38.077Z,19.80
2017-07-05T21:18:06.278Z,19.80
2017-07-05T21:20:35.225Z,19.80
2017-07-05T21:23:03.404Z,19.80
2017-07-05T21:25:31.592Z,19.70
2017-07-05T21:27:59.830Z,19.70
2017-07-05T21:30:28.053Z,19.60
2017-07-05T21:32:56.225Z,19.60
2017-07-05T21:35:24.410Z,19.50
2017-07-05T21:37:52.612Z,19.50
2017-07-05T21:40:21.580Z,19.50
2017-07-05T21:42:49.759Z,19.50
2017-07-05T21:45:18.005Z,19.60
2017-07-05T21:47:46.213Z,19.50
2017-07-05T21:50:14.394Z,19.50
2017-07-05T21:52:42.602Z,19.60
2017-07-05T21:55:10.814Z,19.50
2017-07-05T21:57:39.018Z,19.50
2017-07-05T22:00:07.227Z,19.50
2017-07-05T22:02:35.417Z,19.50
2017-07-05T22:05:03.630Z,19.40
2017-07-05T22:07:32.568Z,19.30
2017-07-05T22:10:00.778Z,19.20
2017-07-05T22:12:28.965Z,19.20
2017-07-05T22:14:57.216Z,19.20
2017-07-05T22:17:25.452Z,19.20
2017-07-05T22:19:53.697Z,19.10
2017-07-05T22:22:22.656Z,19.10
2017-07-05T22:24:50.918Z,19.10
2017-07-05T22:27:19.108Z,19.10
2017-07-05T22:29:47.431Z,19.00
2017-07-05T22:32:16.408Z,18.90
2017-07-05T22:34:45.354Z,18.90
2017-07-05T22:37:13.548Z,18.90
2017-07-05T22:39:41.747Z,18.90
2017-07-05T22:42:09.981Z,18.80
2017-07-05T22:44:38.291Z,18.80
2017-07-05T22:47:06.559Z,18.60
2017-07-05T22:49:34.860Z,18.60
2017-07-05T22:52:03.079Z,18.50
2017-07-05T22:54:31.282Z,18.40
2017-07-05T22:56:59.468Z,18.50
2017-07-05T22:59:27.700Z,18.50
2017-07-05T23:01:55.894Z,18.40
2017-07-05T23:04:24.075Z,18.30
2017-07-05T23:06:52.274Z,18.30
2017-07-05T23:09:20.476Z,18.30
2017-07-05T23:11:49.425Z,18.20
2017-07-05T23:14:17.676Z,18.20
2017-07-05T23:16:45.918Z,18.20
2017-07-05T23:19:14.104Z,18.20
2017-07-05T23:21:43.047Z,18.20
2017-07-05T23:24:11.261Z,18.20
2017-07-05T23:26:40.204Z,18.10
2017-07-05T23:29:08.462Z,18.10
2017-07-05T23:31:36.847Z,18.00
2017-07-05T23:34:05.753Z,18.10
2017-07-05T23:36:33.940Z,18.00
2017-07-05T23:39:02.170Z,18.00
2017-07-05T23:41:30.352Z,18.00
2017-07-05T23:43:58.541Z,18.00
2017-07-05T23:46:26.734Z,18.00
2017-07-05T23:48:54.924Z,18.00
2017-07-05T23:51:23.148Z,18.00
2017-07-05T23:53:51.386Z,18.00
2017-07-05T23:56:19.563Z,18.00
2017-07-05T23:58:47.760Z,17.90
